sensor_id;sensor_type;location;lat;lon;timestamp;P1;durP1;ratioP1;P2;durP2;ratioP2
4102;SDS011;2065;49.790;9.620;2022-07-21T00:01:25;15.77;;;13.33;;
4102;SDS011;2065;49.790;9.620;2022-07-21T00:08:25;14.30;;;12.07;;
4102;SDS011;2065;49.790;9.620;2022-07-21T00:10:52;16.57;;;11.87;;
4102;SDS011;2065;49.790;9.620;2022-07-21T00:17:26;18.83;;;13.03;;
4102;SDS011;2065;49.790;9.620;2022-07-21T00:19:53;13.93;;;11.80;;
4102;SDS011;2065;49.790;9.620;2022-07-21T00:22:20;15.23;;;12.10;;
4102;SDS011;2065;49.790;9.620;2022-07-21T00:24:48;17.50;;;12.50;;
4102;SDS011;2065;49.790;9.620;2022-07-21T00:27:15;12.10;;;10.23;;
4102;SDS011;2065;49.790;9.620;2022-07-21T00:29:42;14.50;;;12.03;;
4102;SDS011;2065;49.790;9.620;2022-07-21T00:32:09;16.57;;;12.70;;
4102;SDS011;2065;49.790;9.620;2022-07-21T00:34:36;12.13;;;10.93;;
4102;SDS011;2065;49.790;9.620;2022-07-21T00:37:03;15.27;;;12.00;;
4102;SDS011;2065;49.790;9.620;2022-07-21T00:39:30;12.70;;;10.40;;
4102;SDS011;2065;49.790;9.620;2022-07-21T00:41:59;17.13;;;11.20;;
4102;SDS011;2065;49.790;9.620;2022-07-21T00:44:26;13.00;;;10.80;;
4102;SDS011;2065;49.790;9.620;2022-07-21T00:46:53;14.33;;;12.47;;
4102;SDS011;2065;49.790;9.620;2022-07-21T00:49:21;15.63;;;12.27;;
4102;SDS011;2065;49.790;9.620;2022-07-21T00:52:37;13.83;;;11.57;;
4102;SDS011;2065;49.790;9.620;2022-07-21T00:55:29;18.40;;;12.73;;
4102;SDS011;2065;49.790;9.620;2022-07-21T00:57:58;13.93;;;12.00;;
4102;SDS011;2065;49.790;9.620;2022-07-21T01:00:26;14.47;;;11.60;;
4102;SDS011;2065;49.790;9.620;2022-07-21T01:02:55;12.97;;;11.67;;
4102;SDS011;2065;49.790;9.620;2022-07-21T01:05:23;15.17;;;12.83;;
4102;SDS011;2065;49.790;9.620;2022-07-21T01:07:51;16.13;;;11.70;;
4102;SDS011;2065;49.790;9.620;2022-07-21T01:10:20;17.10;;;12.10;;
4102;SDS011;2065;49.790;9.620;2022-07-21T01:12:49;15.10;;;12.77;;
4102;SDS011;2065;49.790;9.620;2022-07-21T01:15:18;14.83;;;12.93;;
4102;SDS011;2065;49.790;9.620;2022-07-21T01:21:32;14.97;;;12.57;;
4102;SDS011;2065;49.790;9.620;2022-07-21T01:24:01;18.57;;;11.70;;
4102;SDS011;2065;49.790;9.620;2022-07-21T01:33:29;18.47;;;11.90;;
4102;SDS011;2065;49.790;9.620;2022-07-21T01:35:56;15.50;;;13.43;;
4102;SDS011;2065;49.790;9.620;2022-07-21T01:38:24;16.73;;;13.40;;
4102;SDS011;2065;49.790;9.620;2022-07-21T01:41:09;15.50;;;12.03;;
4102;SDS011;2065;49.790;9.620;2022-07-21T01:48:09;14.47;;;11.37;;
4102;SDS011;2065;49.790;9.620;2022-07-21T01:50:36;15.10;;;11.77;;
4102;SDS011;2065;49.790;9.620;2022-07-21T02:01:20;16.00;;;11.23;;
4102;SDS011;2065;49.790;9.620;2022-07-21T02:03:48;14.50;;;11.20;;
4102;SDS011;2065;49.790;9.620;2022-07-21T02:06:16;14.20;;;11.30;;
4102;SDS011;2065;49.790;9.620;2022-07-21T02:08:43;12.13;;;10.70;;
4102;SDS011;2065;49.790;9.620;2022-07-21T02:11:10;12.40;;;11.10;;
4102;SDS011;2065;49.790;9.620;2022-07-21T02:13:40;14.13;;;10.30;;
4102;SDS011;2065;49.790;9.620;2022-07-21T02:17:00;12.77;;;9.63;;
4102;SDS011;2065;49.790;9.620;2022-07-21T02:20:43;18.13;;;9.83;;
4102;SDS011;2065;49.790;9.620;2022-07-21T02:23:12;13.50;;;11.13;;
4102;SDS011;2065;49.790;9.620;2022-07-21T02:25:39;11.97;;;10.70;;
4102;SDS011;2065;49.790;9.620;2022-07-21T02:28:07;14.63;;;10.47;;
4102;SDS011;2065;49.790;9.620;2022-07-21T02:30:34;12.00;;;9.57;;
4102;SDS011;2065;49.790;9.620;2022-07-21T02:33:02;12.80;;;10.73;;
4102;SDS011;2065;49.790;9.620;2022-07-21T02:35:29;11.83;;;10.03;;
4102;SDS011;2065;49.790;9.620;2022-07-21T02:39:10;10.63;;;9.50;;
4102;SDS011;2065;49.790;9.620;2022-07-21T02:42:52;16.07;;;9.57;;
4102;SDS011;2065;49.790;9.620;2022-07-21T02:45:44;13.80;;;9.70;;
4102;SDS011;2065;49.790;9.620;2022-07-21T02:48:13;10.50;;;8.70;;
4102;SDS011;2065;49.790;9.620;2022-07-21T02:50:41;13.07;;;10.63;;
4102;SDS011;2065;49.790;9.620;2022-07-21T02:53:10;14.70;;;10.17;;
4102;SDS011;2065;49.790;9.620;2022-07-21T02:55:38;11.90;;;10.43;;
4102;SDS011;2065;49.790;9.620;2022-07-21T02:58:06;9.60;;;8.57;;
4102;SDS011;2065;49.790;9.620;2022-07-21T03:00:35;11.30;;;10.07;;
4102;SDS011;2065;49.790;9.620;2022-07-21T03:03:04;11.70;;;10.27;;
4102;SDS011;2065;49.790;9.620;2022-07-21T03:05:34;12.83;;;9.20;;
4102;SDS011;2065;49.790;9.620;2022-07-21T03:08:01;13.07;;;11.00;;
4102;SDS011;2065;49.790;9.620;2022-07-21T03:10:29;12.43;;;10.37;;
4102;SDS011;2065;49.790;9.620;2022-07-21T03:12:56;11.37;;;9.80;;
4102;SDS011;2065;49.790;9.620;2022-07-21T03:15:23;12.67;;;10.43;;
4102;SDS011;2065;49.790;9.620;2022-07-21T03:17:51;15.20;;;13.00;;
4102;SDS011;2065;49.790;9.620;2022-07-21T03:20:18;15.27;;;11.27;;
4102;SDS011;2065;49.790;9.620;2022-07-21T03:22:46;17.73;;;11.30;;
4102;SDS011;2065;49.790;9.620;2022-07-21T03:25:13;12.60;;;10.33;;
4102;SDS011;2065;49.790;9.620;2022-07-21T03:27:42;13.80;;;11.57;;
4102;SDS011;2065;49.790;9.620;2022-07-21T03:30:09;11.53;;;10.20;;
4102;SDS011;2065;49.790;9.620;2022-07-21T03:32:36;13.77;;;10.17;;
4102;SDS011;2065;49.790;9.620;2022-07-21T03:35:04;13.27;;;11.10;;
4102;SDS011;2065;49.790;9.620;2022-07-21T03:41:40;14.90;;;10.50;;
4102;SDS011;2065;49.790;9.620;2022-07-21T03:44:07;14.37;;;11.67;;
4102;SDS011;2065;49.790;9.620;2022-07-21T03:46:34;13.50;;;11.40;;
4102;SDS011;2065;49.790;9.620;2022-07-21T03:49:01;18.90;;;13.17;;
4102;SDS011;2065;49.790;9.620;2022-07-21T03:51:28;15.27;;;12.73;;
4102;SDS011;2065;49.790;9.620;2022-07-21T03:53:55;15.57;;;11.70;;
4102;SDS011;2065;49.790;9.620;2022-07-21T03:56:24;15.47;;;12.27;;
4102;SDS011;2065;49.790;9.620;2022-07-21T03:58:52;17.00;;;13.00;;
4102;SDS011;2065;49.790;9.620;2022-07-21T04:01:19;19.37;;;14.17;;
4102;SDS011;2065;49.790;9.620;2022-07-21T04:03:46;16.47;;;12.50;;
4102;SDS011;2065;49.790;9.620;2022-07-21T04:06:13;18.33;;;13.80;;
4102;SDS011;2065;49.790;9.620;2022-07-21T04:08:40;17.13;;;14.33;;
4102;SDS011;2065;49.790;9.620;2022-07-21T04:11:07;21.70;;;12.93;;
4102;SDS011;2065;49.790;9.620;2022-07-21T04:13:34;17.07;;;13.10;;
4102;SDS011;2065;49.790;9.620;2022-07-21T04:16:02;20.40;;;14.37;;
4102;SDS011;2065;49.790;9.620;2022-07-21T04:18:29;19.50;;;13.93;;
4102;SDS011;2065;49.790;9.620;2022-07-21T04:20:56;18.10;;;14.40;;
4102;SDS011;2065;49.790;9.620;2022-07-21T04:23:23;19.73;;;15.07;;
4102;SDS011;2065;49.790;9.620;2022-07-21T04:25:50;21.93;;;13.40;;
4102;SDS011;2065;49.790;9.620;2022-07-21T04:28:17;17.40;;;14.17;;
4102;SDS011;2065;49.790;9.620;2022-07-21T04:30:44;21.70;;;15.93;;
4102;SDS011;2065;49.790;9.620;2022-07-21T04:33:12;20.07;;;16.07;;
4102;SDS011;2065;49.790;9.620;2022-07-21T04:35:39;18.60;;;14.60;;
4102;SDS011;2065;49.790;9.620;2022-07-21T04:38:08;18.47;;;15.30;;
4102;SDS011;2065;49.790;9.620;2022-07-21T04:40:36;20.93;;;16.67;;
4102;SDS011;2065;49.790;9.620;2022-07-21T04:43:03;19.93;;;16.53;;
4102;SDS011;2065;49.790;9.620;2022-07-21T04:45:30;17.93;;;14.33;;
4102;SDS011;2065;49.790;9.620;2022-07-21T04:47:57;18.27;;;15.17;;
4102;SDS011;2065;49.790;9.620;2022-07-21T04:50:26;17.77;;;15.27;;
4102;SDS011;2065;49.790;9.620;2022-07-21T04:52:54;18.00;;;13.80;;
4102;SDS011;2065;49.790;9.620;2022-07-21T04:59:28;19.23;;;14.27;;
4102;SDS011;2065;49.790;9.620;2022-07-21T05:01:56;20.83;;;14.33;;
4102;SDS011;2065;49.790;9.620;2022-07-21T05:04:23;18.30;;;14.10;;
4102;SDS011;2065;49.790;9.620;2022-07-21T05:06:52;14.80;;;12.50;;
4102;SDS011;2065;49.790;9.620;2022-07-21T05:15:56;17.33;;;12.87;;
4102;SDS011;2065;49.790;9.620;2022-07-21T05:22:30;15.27;;;11.60;;
4102;SDS011;2065;49.790;9.620;2022-07-21T05:24:57;14.00;;;12.50;;
4102;SDS011;2065;49.790;9.620;2022-07-21T05:27:24;14.13;;;11.90;;
4102;SDS011;2065;49.790;9.620;2022-07-21T05:29:51;12.80;;;11.50;;
4102;SDS011;2065;49.790;9.620;2022-07-21T05:36:27;12.20;;;10.90;;
4102;SDS011;2065;49.790;9.620;2022-07-21T05:38:56;14.00;;;11.10;;
4102;SDS011;2065;49.790;9.620;2022-07-21T05:41:23;15.87;;;11.33;;
4102;SDS011;2065;49.790;9.620;2022-07-21T05:43:49;13.50;;;11.93;;
4102;SDS011;2065;49.790;9.620;2022-07-21T05:46:16;14.77;;;11.03;;
4102;SDS011;2065;49.790;9.620;2022-07-21T05:48:43;12.73;;;11.43;;
4102;SDS011;2065;49.790;9.620;2022-07-21T05:51:10;15.70;;;11.70;;
4102;SDS011;2065;49.790;9.620;2022-07-21T05:53:37;14.40;;;10.50;;
4102;SDS011;2065;49.790;9.620;2022-07-21T05:56:06;16.10;;;11.10;;
4102;SDS011;2065;49.790;9.620;2022-07-21T05:58:33;15.03;;;12.00;;
4102;SDS011;2065;49.790;9.620;2022-07-21T06:01:00;12.07;;;10.80;;
4102;SDS011;2065;49.790;9.620;2022-07-21T06:03:38;13.20;;;10.87;;
4102;SDS011;2065;49.790;9.620;2022-07-21T06:06:07;15.73;;;10.50;;
4102;SDS011;2065;49.790;9.620;2022-07-21T06:08:34;12.50;;;10.37;;
4102;SDS011;2065;49.790;9.620;2022-07-21T06:11:02;19.13;;;11.03;;
4102;SDS011;2065;49.790;9.620;2022-07-21T06:13:30;12.50;;;10.77;;
4102;SDS011;2065;49.790;9.620;2022-07-21T06:15:57;16.20;;;11.80;;
4102;SDS011;2065;49.790;9.620;2022-07-21T06:18:24;14.47;;;11.33;;
4102;SDS011;2065;49.790;9.620;2022-07-21T06:20:52;11.80;;;10.17;;
4102;SDS011;2065;49.790;9.620;2022-07-21T06:23:19;11.83;;;10.63;;
4102;SDS011;2065;49.790;9.620;2022-07-21T06:29:56;14.43;;;11.10;;
4102;SDS011;2065;49.790;9.620;2022-07-21T06:32:24;11.17;;;10.17;;
4102;SDS011;2065;49.790;9.620;2022-07-21T06:34:51;13.70;;;12.20;;
4102;SDS011;2065;49.790;9.620;2022-07-21T06:37:18;19.03;;;13.03;;
4102;SDS011;2065;49.790;9.620;2022-07-21T06:46:23;14.40;;;11.37;;
4102;SDS011;2065;49.790;9.620;2022-07-21T06:48:50;12.53;;;11.00;;
4102;SDS011;2065;49.790;9.620;2022-07-21T06:51:17;17.50;;;10.83;;
4102;SDS011;2065;49.790;9.620;2022-07-21T06:53:44;13.30;;;10.63;;
4102;SDS011;2065;49.790;9.620;2022-07-21T06:56:11;10.20;;;9.10;;
4102;SDS011;2065;49.790;9.620;2022-07-21T06:58:38;14.03;;;9.23;;
4102;SDS011;2065;49.790;9.620;2022-07-21T07:01:05;9.73;;;8.33;;
4102;SDS011;2065;49.790;9.620;2022-07-21T07:03:33;11.33;;;9.67;;
4102;SDS011;2065;49.790;9.620;2022-07-21T07:06:01;13.50;;;9.20;;
4102;SDS011;2065;49.790;9.620;2022-07-21T07:12:36;8.17;;;7.47;;
4102;SDS011;2065;49.790;9.620;2022-07-21T07:15:04;14.00;;;7.93;;
4102;SDS011;2065;49.790;9.620;2022-07-21T07:17:32;9.83;;;8.40;;
4102;SDS011;2065;49.790;9.620;2022-07-21T07:20:00;9.80;;;8.23;;
4102;SDS011;2065;49.790;9.620;2022-07-21T07:22:28;9.13;;;8.23;;
4102;SDS011;2065;49.790;9.620;2022-07-21T07:24:55;9.70;;;7.60;;
4102;SDS011;2065;49.790;9.620;2022-07-21T07:27:22;9.17;;;8.17;;
4102;SDS011;2065;49.790;9.620;2022-07-21T07:29:49;8.57;;;7.77;;
4102;SDS011;2065;49.790;9.620;2022-07-21T07:32:16;10.47;;;8.13;;
4102;SDS011;2065;49.790;9.620;2022-07-21T07:34:43;12.03;;;8.10;;
4102;SDS011;2065;49.790;9.620;2022-07-21T07:37:12;10.37;;;7.90;;
4102;SDS011;2065;49.790;9.620;2022-07-21T07:39:39;7.90;;;7.17;;
4102;SDS011;2065;49.790;9.620;2022-07-21T07:42:06;9.70;;;8.40;;
4102;SDS011;2065;49.790;9.620;2022-07-21T07:44:33;14.07;;;9.10;;
4102;SDS011;2065;49.790;9.620;2022-07-21T07:47:00;10.23;;;7.70;;
4102;SDS011;2065;49.790;9.620;2022-07-21T07:49:28;9.93;;;8.53;;
4102;SDS011;2065;49.790;9.620;2022-07-21T07:51:55;10.67;;;8.13;;
4102;SDS011;2065;49.790;9.620;2022-07-21T07:54:23;9.57;;;8.57;;
4102;SDS011;2065;49.790;9.620;2022-07-21T07:56:51;10.40;;;9.40;;
4102;SDS011;2065;49.790;9.620;2022-07-21T07:59:18;8.90;;;8.10;;
4102;SDS011;2065;49.790;9.620;2022-07-21T08:01:44;8.23;;;7.43;;
4102;SDS011;2065;49.790;9.620;2022-07-21T08:04:11;7.40;;;6.80;;
4102;SDS011;2065;49.790;9.620;2022-07-21T08:06:40;8.50;;;7.60;;
4102;SDS011;2065;49.790;9.620;2022-07-21T08:09:07;8.10;;;7.30;;
4102;SDS011;2065;49.790;9.620;2022-07-21T08:11:36;11.23;;;7.10;;
4102;SDS011;2065;49.790;9.620;2022-07-21T08:16:56;9.10;;;7.90;;
4102;SDS011;2065;49.790;9.620;2022-07-21T08:19:23;7.53;;;6.73;;
4102;SDS011;2065;49.790;9.620;2022-07-21T08:21:50;11.10;;;7.17;;
4102;SDS011;2065;49.790;9.620;2022-07-21T08:24:17;8.10;;;7.00;;
4102;SDS011;2065;49.790;9.620;2022-07-21T08:26:46;7.90;;;7.20;;
4102;SDS011;2065;49.790;9.620;2022-07-21T08:29:13;7.23;;;6.63;;
4102;SDS011;2065;49.790;9.620;2022-07-21T08:31:40;6.50;;;5.90;;
4102;SDS011;2065;49.790;9.620;2022-07-21T08:36:59;8.27;;;6.43;;
4102;SDS011;2065;49.790;9.620;2022-07-21T08:39:26;7.27;;;6.57;;
4102;SDS011;2065;49.790;9.620;2022-07-21T08:41:54;8.37;;;7.23;;
4102;SDS011;2065;49.790;9.620;2022-07-21T08:44:21;8.27;;;7.47;;
4102;SDS011;2065;49.790;9.620;2022-07-21T08:46:49;8.10;;;6.80;;
4102;SDS011;2065;49.790;9.620;2022-07-21T08:49:19;9.17;;;7.30;;
4102;SDS011;2065;49.790;9.620;2022-07-21T08:51:47;9.13;;;8.10;;
4102;SDS011;2065;49.790;9.620;2022-07-21T08:54:16;8.10;;;7.30;;
4102;SDS011;2065;49.790;9.620;2022-07-21T09:04:41;8.57;;;7.73;;
4102;SDS011;2065;49.790;9.620;2022-07-21T09:07:08;9.00;;;7.10;;
4102;SDS011;2065;49.790;9.620;2022-07-21T09:09:35;7.43;;;6.57;;
4102;SDS011;2065;49.790;9.620;2022-07-21T09:12:02;11.30;;;7.90;;
4102;SDS011;2065;49.790;9.620;2022-07-21T09:15:11;6.83;;;6.23;;
4102;SDS011;2065;49.790;9.620;2022-07-21T09:17:39;8.07;;;7.27;;
4102;SDS011;2065;49.790;9.620;2022-07-21T09:20:10;6.93;;;6.33;;
4102;SDS011;2065;49.790;9.620;2022-07-21T09:23:00;6.80;;;5.47;;
4102;SDS011;2065;49.790;9.620;2022-07-21T09:25:36;6.63;;;6.03;;
4102;SDS011;2065;49.790;9.620;2022-07-21T09:30:58;7.30;;;6.63;;
4102;SDS011;2065;49.790;9.620;2022-07-21T09:33:27;8.27;;;6.20;;
4102;SDS011;2065;49.790;9.620;2022-07-21T09:38:52;7.03;;;5.90;;
4102;SDS011;2065;49.790;9.620;2022-07-21T09:41:20;7.30;;;6.37;;
4102;SDS011;2065;49.790;9.620;2022-07-21T09:43:49;7.17;;;6.03;;
4102;SDS011;2065;49.790;9.620;2022-07-21T09:46:18;6.60;;;6.00;;
4102;SDS011;2065;49.790;9.620;2022-07-21T09:48:46;6.20;;;5.70;;
4102;SDS011;2065;49.790;9.620;2022-07-21T09:51:26;5.87;;;5.30;;
4102;SDS011;2065;49.790;9.620;2022-07-21T09:53:56;6.90;;;5.73;;
4102;SDS011;2065;49.790;9.620;2022-07-21T09:56:26;6.17;;;5.57;;
4102;SDS011;2065;49.790;9.620;2022-07-21T09:58:58;6.13;;;5.53;;
4102;SDS011;2065;49.790;9.620;2022-07-21T10:01:26;6.20;;;5.40;;
4102;SDS011;2065;49.790;9.620;2022-07-21T10:03:55;6.17;;;4.50;;
4102;SDS011;2065;49.790;9.620;2022-07-21T10:06:23;5.33;;;4.93;;
4102;SDS011;2065;49.790;9.620;2022-07-21T10:08:54;6.10;;;5.00;;
4102;SDS011;2065;49.790;9.620;2022-07-21T10:11:22;5.43;;;4.87;;
4102;SDS011;2065;49.790;9.620;2022-07-21T10:13:49;4.83;;;4.43;;
4102;SDS011;2065;49.790;9.620;2022-07-21T10:16:17;5.40;;;4.90;;
4102;SDS011;2065;49.790;9.620;2022-07-21T10:18:51;5.87;;;5.33;;
4102;SDS011;2065;49.790;9.620;2022-07-21T10:21:23;6.63;;;5.10;;
4102;SDS011;2065;49.790;9.620;2022-07-21T10:24:00;5.00;;;4.60;;
4102;SDS011;2065;49.790;9.620;2022-07-21T10:26:28;5.60;;;5.10;;
4102;SDS011;2065;49.790;9.620;2022-07-21T10:28:54;5.70;;;5.20;;
4102;SDS011;2065;49.790;9.620;2022-07-21T10:31:22;5.40;;;4.90;;
4102;SDS011;2065;49.790;9.620;2022-07-21T10:33:56;7.77;;;5.03;;
4102;SDS011;2065;49.790;9.620;2022-07-21T10:36:42;4.80;;;4.40;;
4102;SDS011;2065;49.790;9.620;2022-07-21T10:39:20;5.30;;;4.80;;
4102;SDS011;2065;49.790;9.620;2022-07-21T10:41:53;5.87;;;5.30;;
4102;SDS011;2065;49.790;9.620;2022-07-21T10:44:44;6.00;;;5.40;;
4102;SDS011;2065;49.790;9.620;2022-07-21T10:47:13;6.37;;;4.93;;
4102;SDS011;2065;49.790;9.620;2022-07-21T10:49:50;5.33;;;4.70;;
4102;SDS011;2065;49.790;9.620;2022-07-21T10:55:27;5.33;;;4.83;;
4102;SDS011;2065;49.790;9.620;2022-07-21T10:58:15;4.63;;;4.20;;
4102;SDS011;2065;49.790;9.620;2022-07-21T11:11:39;5.33;;;4.83;;
4102;SDS011;2065;49.790;9.620;2022-07-21T11:14:33;5.37;;;4.87;;
4102;SDS011;2065;49.790;9.620;2022-07-21T11:21:52;6.03;;;4.80;;
4102;SDS011;2065;49.790;9.620;2022-07-21T11:24:24;5.27;;;4.77;;
4102;SDS011;2065;49.790;9.620;2022-07-21T11:26:55;4.83;;;4.37;;
4102;SDS011;2065;49.790;9.620;2022-07-21T11:29:24;5.80;;;5.30;;
4102;SDS011;2065;49.790;9.620;2022-07-21T11:31:51;5.53;;;5.03;;
4102;SDS011;2065;49.790;9.620;2022-07-21T11:34:18;5.43;;;4.93;;
4102;SDS011;2065;49.790;9.620;2022-07-21T11:36:46;5.07;;;4.67;;
4102;SDS011;2065;49.790;9.620;2022-07-21T11:39:13;6.00;;;5.50;;
4102;SDS011;2065;49.790;9.620;2022-07-21T11:41:45;5.47;;;5.07;;
4102;SDS011;2065;49.790;9.620;2022-07-21T11:44:12;5.43;;;4.83;;
4102;SDS011;2065;49.790;9.620;2022-07-21T11:50:58;5.80;;;5.30;;
4102;SDS011;2065;49.790;9.620;2022-07-21T11:53:26;6.00;;;5.50;;
4102;SDS011;2065;49.790;9.620;2022-07-21T11:55:53;10.40;;;4.93;;
4102;SDS011;2065;49.790;9.620;2022-07-21T11:58:21;5.40;;;4.90;;
4102;SDS011;2065;49.790;9.620;2022-07-21T12:00:48;5.93;;;5.43;;
4102;SDS011;2065;49.790;9.620;2022-07-21T12:03:15;6.20;;;5.70;;
4102;SDS011;2065;49.790;9.620;2022-07-21T12:05:42;5.20;;;4.50;;
4102;SDS011;2065;49.790;9.620;2022-07-21T12:15:13;5.20;;;4.70;;
4102;SDS011;2065;49.790;9.620;2022-07-21T12:17:43;5.13;;;4.63;;
4102;SDS011;2065;49.790;9.620;2022-07-21T12:24:19;5.90;;;5.30;;
4102;SDS011;2065;49.790;9.620;2022-07-21T12:26:47;5.30;;;4.80;;
4102;SDS011;2065;49.790;9.620;2022-07-21T12:29:24;5.90;;;5.40;;
4102;SDS011;2065;49.790;9.620;2022-07-21T12:31:53;6.13;;;5.53;;
4102;SDS011;2065;49.790;9.620;2022-07-21T12:34:20;6.47;;;5.40;;
4102;SDS011;2065;49.790;9.620;2022-07-21T12:36:49;5.20;;;4.80;;
4102;SDS011;2065;49.790;9.620;2022-07-21T12:39:17;5.37;;;4.87;;
4102;SDS011;2065;49.790;9.620;2022-07-21T12:42:04;5.70;;;5.20;;
4102;SDS011;2065;49.790;9.620;2022-07-21T12:44:33;5.63;;;4.60;;
4102;SDS011;2065;49.790;9.620;2022-07-21T12:47:14;5.53;;;5.03;;
4102;SDS011;2065;49.790;9.620;2022-07-21T12:49:55;6.17;;;5.57;;
4102;SDS011;2065;49.790;9.620;2022-07-21T12:56:31;5.53;;;5.03;;
4102;SDS011;2065;49.790;9.620;2022-07-21T12:59:00;5.67;;;5.27;;
4102;SDS011;2065;49.790;9.620;2022-07-21T13:01:28;6.30;;;5.37;;
4102;SDS011;2065;49.790;9.620;2022-07-21T13:03:59;8.30;;;5.63;;
4102;SDS011;2065;49.790;9.620;2022-07-21T13:06:27;6.50;;;5.67;;
4102;SDS011;2065;49.790;9.620;2022-07-21T13:08:54;6.57;;;5.97;;
4102;SDS011;2065;49.790;9.620;2022-07-21T13:11:21;6.03;;;5.43;;
4102;SDS011;2065;49.790;9.620;2022-07-21T13:13:49;7.20;;;4.93;;
4102;SDS011;2065;49.790;9.620;2022-07-21T13:16:19;9.00;;;6.20;;
4102;SDS011;2065;49.790;9.620;2022-07-21T13:18:46;5.27;;;4.87;;
4102;SDS011;2065;49.790;9.620;2022-07-21T13:21:14;5.90;;;5.30;;
4102;SDS011;2065;49.790;9.620;2022-07-21T13:23:41;6.43;;;5.80;;
4102;SDS011;2065;49.790;9.620;2022-07-21T13:26:08;8.73;;;5.53;;
4102;SDS011;2065;49.790;9.620;2022-07-21T13:28:35;8.97;;;5.70;;
4102;SDS011;2065;49.790;9.620;2022-07-21T13:31:03;6.50;;;5.43;;
4102;SDS011;2065;49.790;9.620;2022-07-21T13:33:31;6.33;;;5.73;;
4102;SDS011;2065;49.790;9.620;2022-07-21T13:35:59;6.43;;;5.87;;
4102;SDS011;2065;49.790;9.620;2022-07-21T13:38:27;7.53;;;5.17;;
4102;SDS011;2065;49.790;9.620;2022-07-21T13:40:56;8.37;;;6.47;;
4102;SDS011;2065;49.790;9.620;2022-07-21T13:43:23;6.23;;;5.63;;
4102;SDS011;2065;49.790;9.620;2022-07-21T13:45:50;6.20;;;5.60;;
4102;SDS011;2065;49.790;9.620;2022-07-21T13:48:17;6.23;;;5.63;;
4102;SDS011;2065;49.790;9.620;2022-07-21T13:50:44;6.40;;;5.87;;
4102;SDS011;2065;49.790;9.620;2022-07-21T13:53:11;6.57;;;5.90;;
4102;SDS011;2065;49.790;9.620;2022-07-21T13:55:39;7.47;;;5.83;;
4102;SDS011;2065;49.790;9.620;2022-07-21T13:58:06;7.90;;;6.63;;
4102;SDS011;2065;49.790;9.620;2022-07-21T14:00:34;7.33;;;6.60;;
4102;SDS011;2065;49.790;9.620;2022-07-21T14:03:01;6.00;;;5.50;;
4102;SDS011;2065;49.790;9.620;2022-07-21T14:05:28;8.20;;;6.30;;
4102;SDS011;2065;49.790;9.620;2022-07-21T14:07:55;8.17;;;6.27;;
4102;SDS011;2065;49.790;9.620;2022-07-21T14:10:22;7.07;;;5.53;;
4102;SDS011;2065;49.790;9.620;2022-07-21T14:12:51;6.87;;;6.20;;
4102;SDS011;2065;49.790;9.620;2022-07-21T14:15:18;8.10;;;7.40;;
4102;SDS011;2065;49.790;9.620;2022-07-21T14:17:45;7.30;;;6.70;;
4102;SDS011;2065;49.790;9.620;2022-07-21T14:20:12;6.33;;;5.77;;
4102;SDS011;2065;49.790;9.620;2022-07-21T14:22:39;6.63;;;5.97;;
4102;SDS011;2065;49.790;9.620;2022-07-21T14:25:06;7.97;;;6.63;;
4102;SDS011;2065;49.790;9.620;2022-07-21T14:27:47;7.43;;;6.70;;
4102;SDS011;2065;49.790;9.620;2022-07-21T14:30:18;6.60;;;6.00;;
4102;SDS011;2065;49.790;9.620;2022-07-21T14:32:46;7.23;;;6.63;;
4102;SDS011;2065;49.790;9.620;2022-07-21T14:35:14;6.10;;;5.60;;
4102;SDS011;2065;49.790;9.620;2022-07-21T14:37:44;7.50;;;6.80;;
4102;SDS011;2065;49.790;9.620;2022-07-21T14:40:12;7.67;;;6.90;;
4102;SDS011;2065;49.790;9.620;2022-07-21T14:42:40;7.60;;;6.90;;
4102;SDS011;2065;49.790;9.620;2022-07-21T14:45:08;7.60;;;6.57;;
4102;SDS011;2065;49.790;9.620;2022-07-21T14:47:37;7.13;;;6.43;;
4102;SDS011;2065;49.790;9.620;2022-07-21T14:50:04;7.20;;;6.60;;
4102;SDS011;2065;49.790;9.620;2022-07-21T14:52:32;8.03;;;6.60;;
4102;SDS011;2065;49.790;9.620;2022-07-21T14:58:40;6.73;;;6.20;;
4102;SDS011;2065;49.790;9.620;2022-07-21T15:01:07;6.87;;;6.23;;
4102;SDS011;2065;49.790;9.620;2022-07-21T15:03:36;7.10;;;6.50;;
4102;SDS011;2065;49.790;9.620;2022-07-21T15:06:03;7.50;;;6.70;;
4102;SDS011;2065;49.790;9.620;2022-07-21T15:08:30;6.67;;;6.00;;
4102;SDS011;2065;49.790;9.620;2022-07-21T15:12:12;7.00;;;6.30;;
4102;SDS011;2065;49.790;9.620;2022-07-21T15:14:40;6.77;;;6.10;;
4102;SDS011;2065;49.790;9.620;2022-07-21T15:17:07;6.77;;;6.17;;
4102;SDS011;2065;49.790;9.620;2022-07-21T15:20:49;7.00;;;6.30;;
4102;SDS011;2065;49.790;9.620;2022-07-21T15:23:16;6.80;;;5.93;;
4102;SDS011;2065;49.790;9.620;2022-07-21T15:25:43;5.43;;;5.03;;
4102;SDS011;2065;49.790;9.620;2022-07-21T15:28:10;7.60;;;5.97;;
4102;SDS011;2065;49.790;9.620;2022-07-21T15:34:21;7.20;;;6.50;;
4102;SDS011;2065;49.790;9.620;2022-07-21T15:36:49;8.13;;;6.10;;
4102;SDS011;2065;49.790;9.620;2022-07-21T15:45:52;7.10;;;6.40;;
4102;SDS011;2065;49.790;9.620;2022-07-21T15:48:19;6.93;;;6.00;;
4102;SDS011;2065;49.790;9.620;2022-07-21T15:50:46;7.93;;;6.30;;
4102;SDS011;2065;49.790;9.620;2022-07-21T15:53:14;7.23;;;5.93;;
4102;SDS011;2065;49.790;9.620;2022-07-21T15:59:24;7.47;;;6.77;;
4102;SDS011;2065;49.790;9.620;2022-07-21T16:02:03;8.87;;;6.40;;
4102;SDS011;2065;49.790;9.620;2022-07-21T16:04:32;6.70;;;6.10;;
4102;SDS011;2065;49.790;9.620;2022-07-21T16:06:59;6.90;;;6.30;;
4102;SDS011;2065;49.790;9.620;2022-07-21T16:09:28;6.87;;;6.27;;
4102;SDS011;2065;49.790;9.620;2022-07-21T16:11:56;6.53;;;6.03;;
4102;SDS011;2065;49.790;9.620;2022-07-21T16:14:24;7.80;;;7.00;;
4102;SDS011;2065;49.790;9.620;2022-07-21T16:17:40;9.03;;;6.23;;
4102;SDS011;2065;49.790;9.620;2022-07-21T16:20:31;7.00;;;6.40;;
4102;SDS011;2065;49.790;9.620;2022-07-21T16:22:58;8.80;;;6.57;;
4102;SDS011;2065;49.790;9.620;2022-07-21T16:25:26;7.80;;;6.70;;
4102;SDS011;2065;49.790;9.620;2022-07-21T16:27:53;6.77;;;6.00;;
4102;SDS011;2065;49.790;9.620;2022-07-21T16:30:20;7.50;;;6.77;;
4102;SDS011;2065;49.790;9.620;2022-07-21T16:33:37;7.00;;;6.37;;
4102;SDS011;2065;49.790;9.620;2022-07-21T16:51:20;7.10;;;6.40;;
4102;SDS011;2065;49.790;9.620;2022-07-21T16:53:47;7.37;;;6.53;;
4102;SDS011;2065;49.790;9.620;2022-07-21T16:56:14;6.90;;;6.20;;
4102;SDS011;2065;49.790;9.620;2022-07-21T16:58:41;7.50;;;5.60;;
4102;SDS011;2065;49.790;9.620;2022-07-21T17:01:09;6.87;;;5.63;;
4102;SDS011;2065;49.790;9.620;2022-07-21T17:03:36;7.00;;;6.40;;
4102;SDS011;2065;49.790;9.620;2022-07-21T17:06:03;7.00;;;6.37;;
4102;SDS011;2065;49.790;9.620;2022-07-21T17:08:31;7.17;;;5.80;;
4102;SDS011;2065;49.790;9.620;2022-07-21T17:10:58;6.97;;;6.40;;
4102;SDS011;2065;49.790;9.620;2022-07-21T17:13:25;7.17;;;6.50;;
4102;SDS011;2065;49.790;9.620;2022-07-21T17:15:52;6.90;;;6.30;;
4102;SDS011;2065;49.790;9.620;2022-07-21T17:18:21;6.60;;;5.90;;
4102;SDS011;2065;49.790;9.620;2022-07-21T17:20:48;7.57;;;6.03;;
4102;SDS011;2065;49.790;9.620;2022-07-21T17:23:15;8.43;;;6.27;;
4102;SDS011;2065;49.790;9.620;2022-07-21T17:29:50;6.27;;;5.63;;
4102;SDS011;2065;49.790;9.620;2022-07-21T17:32:17;5.90;;;5.40;;
4102;SDS011;2065;49.790;9.620;2022-07-21T17:34:45;7.60;;;6.40;;
4102;SDS011;2065;49.790;9.620;2022-07-21T17:37:12;6.17;;;5.63;;
4102;SDS011;2065;49.790;9.620;2022-07-21T17:39:39;6.83;;;6.07;;
4102;SDS011;2065;49.790;9.620;2022-07-21T17:42:06;6.43;;;5.33;;
4102;SDS011;2065;49.790;9.620;2022-07-21T17:44:33;5.80;;;5.30;;
4102;SDS011;2065;49.790;9.620;2022-07-21T17:47:00;7.77;;;6.53;;
4102;SDS011;2065;49.790;9.620;2022-07-21T17:49:27;6.13;;;5.47;;
4102;SDS011;2065;49.790;9.620;2022-07-21T17:51:55;6.40;;;5.50;;
4102;SDS011;2065;49.790;9.620;2022-07-21T17:54:22;7.90;;;5.60;;
4102;SDS011;2065;49.790;9.620;2022-07-21T17:56:49;7.90;;;6.60;;
4102;SDS011;2065;49.790;9.620;2022-07-21T18:00:27;5.90;;;5.43;;
4102;SDS011;2065;49.790;9.620;2022-07-21T18:04:08;6.00;;;5.50;;
4102;SDS011;2065;49.790;9.620;2022-07-21T18:06:35;7.10;;;6.00;;
4102;SDS011;2065;49.790;9.620;2022-07-21T18:16:03;6.07;;;5.50;;
4102;SDS011;2065;49.790;9.620;2022-07-21T18:18:30;6.17;;;5.67;;